Time;durP1;ratioP1;P1;durP2;ratioP2;P2;SDS_P1;SDS_P2;PMS_P1;PMS_P2;Temp;Humidity;BMP_temperature;BMP_pressure;BME280_temperature;BME280_humidity;BME280_pressure;Samples;Min_cycle;Max_cycle;Signal;HPM_P1;HPM_P2
2024/02/17 00:23:05;;;;;;;;;;;;;;;;;;;;;
2024/02/17 00:48:08;;;;;;;5.05;1.40;;;;;;;11.36;100.00;100920.00;4905208;29;20040;-96
2024/02/17 00:59:18;;;;;;;6.57;1.88;;;;;;;11.36;100.00;100923.50;4883496;29;20134;-95
2024/02/17 01:03:19;;;;;;;;;;;;;;;;;;;;;
2024/02/17 01:06:17;;;;;;;4.03;1.73;;;;;;;11.31;100.00;100935.50;4889150;29;20038;-96
2024/02/17 01:17:17;;;;;;;7.97;1.67;;;;;;;11.31;100.00;100940.78;4968447;28;20066;-96
2024/02/17 01:20:57;;;;;;;7.25;1.85;;;;;;;11.22;100.00;100948.56;4957418;28;20086;-96
2024/02/17 01:23:55;;;;;;;5.47;2.08;;;;;;;11.04;100.00;100941.28;4886385;29;20044;-96
2024/02/17 01:26:56;;;;;;;;;;;;;;;;;;;;;
2024/02/17 01:30:51;;;;;;;7.35;2.45;;;;;;;10.85;100.00;100941.19;4946938;28;20095;-96
2024/02/17 01:37:10;;;;;;;4.55;2.20;;;;;;;10.60;100.00;100949.47;4958089;28;20042;-95
2024/02/17 01:45:17;;;;;;;;;;;;;;;;;;;;;
2024/02/17 01:49:06;;;;;;;4.90;3.33;;;;;;;10.51;100.00;100950.25;4934812;29;20043;-95
2024/02/17 01:51:50;;;;;;;4.70;1.98;;;;;;;10.47;100.00;100952.31;4948189;28;20131;-95
2024/02/17 01:54:43;;;;;;;5.22;2.08;;;;;;;10.48;100.00;100951.34;4913196;29;20098;-95
2024/02/17 01:58:01;;;;;;;4.85;2.28;;;;;;;10.48;100.00;100953.97;4928951;29;20051;-95
2024/02/17 02:00:33;;;;;;;7.20;3.15;;;;;;;10.45;100.00;100948.13;4921828;29;20051;-95
2024/02/17 02:03:09;;;;;;;2.72;2.10;;;;;;;10.47;100.00;100954.13;4926607;29;20118;-95
2024/02/17 02:11:10;;;;;;;;;;;;;;;;;;;;;
2024/02/17 02:18:41;;;;;;;5.63;2.30;;;;;;;10.30;100.00;100998.66;4856605;28;20043;-96
2024/02/17 02:21:24;;;;;;;3.85;2.67;;;;;;;10.26;100.00;100981.34;4970843;28;20074;-96
2024/02/17 02:23:53;;;;;;;4.18;2.80;;;;;;;10.33;100.00;100989.63;4956587;28;20619;-96
2024/02/17 02:26:22;;;;;;;4.20;2.83;;;;;;;10.38;100.00;100996.19;4961937;28;20035;-96
2024/02/17 02:28:52;;;;;;;3.60;2.75;;;;;;;10.41;100.00;100981.88;4957569;28;20092;-95
2024/02/17 02:31:24;;;;;;;5.05;3.60;;;;;;;10.42;100.00;100994.13;4962206;28;20052;-95
2024/02/17 02:33:51;;;;;;;4.20;3.30;;;;;;;10.49;100.00;100991.84;4975854;28;20042;-96
2024/02/17 02:36:18;;;;;;;12.63;4.15;;;;;;;10.54;100.00;100989.66;4970408;28;20112;-96
2024/02/17 02:38:45;;;;;;;5.43;4.47;;;;;;;10.60;100.00;101004.97;4963316;28;20080;-96
2024/02/17 02:41:11;;;;;;;6.13;4.75;;;;;;;10.59;100.00;100998.00;4971888;28;20034;-96
2024/02/17 02:43:45;;;;;;;5.90;4.72;;;;;;;10.60;100.00;100996.19;4961191;28;20038;-95
2024/02/17 02:46:12;;;;;;;6.82;5.00;;;;;;;10.64;100.00;100997.59;4950971;28;20098;-95
2024/02/17 02:48:38;;;;;;;6.63;5.40;;;;;;;10.63;100.00;100996.78;4971828;28;20048;-95
2024/02/17 02:51:04;;;;;;;8.85;5.72;;;;;;;10.58;100.00;100985.75;4948748;28;20116;-96
2024/02/17 02:53:30;;;;;;;7.75;5.72;;;;;;;10.54;100.00;100979.06;4965386;28;20037;-96
2024/02/17 02:56:23;;;;;;;7.20;5.03;;;;;;;10.52;100.00;100975.72;4978750;28;20062;-96
2024/02/17 02:58:49;;;;;;;7.40;5.40;;;;;;;10.46;100.00;100978.84;4944048;28;20034;-96
2024/02/17 03:01:15;;;;;;;9.90;5.40;;;;;;;10.41;100.00;100968.66;4969034;28;20559;-96
2024/02/17 03:03:43;;;;;;;7.00;4.97;;;;;;;10.34;100.00;100965.72;4988988;28;20030;-96
2024/02/17 03:06:09;;;;;;;8.80;4.93;;;;;;;10.35;100.00;100964.72;4985328;28;20046;-96
2024/02/17 03:08:39;;;;;;;8.75;5.28;;;;;;;10.30;100.00;100962.47;4947559;28;20026;-95
2024/02/17 03:11:07;;;;;;;6.70;4.65;;;;;;;10.31;100.00;100944.81;4989664;28;20034;-96
2024/02/17 03:13:51;;;;;;;8.50;4.93;;;;;;;10.29;100.00;100952.03;4980146;28;20088;-96
2024/02/17 03:16:24;;;;;;;7.03;5.00;;;;;;;10.26;100.00;100958.44;4945100;28;20042;-95
2024/02/17 03:18:53;;;;;;;6.10;4.38;;;;;;;10.21;100.00;100949.22;4975410;28;20034;-96
2024/02/17 03:21:22;;;;;;;7.25;5.25;;;;;;;10.20;100.00;100940.47;4976920;28;20034;-96
2024/02/17 03:23:48;;;;;;;5.65;4.75;;;;;;;10.16;100.00;100937.22;4980629;28;20077;-96
2024/02/17 03:26:18;;;;;;;9.88;4.70;;;;;;;10.13;100.00;100915.53;4965914;28;20038;-95
2024/02/17 03:28:47;;;;;;;7.00;4.85;;;;;;;10.13;100.00;100923.47;4936563;28;20486;-96
2024/02/17 03:31:16;;;;;;;6.47;4.50;;;;;;;10.09;100.00;100909.66;4958630;28;20039;-96
2024/02/17 03:33:48;;;;;;;7.13;4.55;;;;;;;10.08;100.00;100930.94;4959979;28;20042;-96
2024/02/17 03:36:20;;;;;;;8.27;4.68;;;;;;;10.12;100.00;100927.06;4961988;28;20046;-95
2024/02/17 03:39:12;;;;;;;9.43;4.22;;;;;;;10.16;100.00;100916.09;4977285;28;20041;-96
2024/02/17 03:41:41;;;;;;;5.63;4.35;;;;;;;10.09;100.00;100925.50;4981420;28;20030;-96
2024/02/17 03:44:24;;;;;;;4.97;3.65;;;;;;;10.10;100.00;100911.34;4972830;28;20090;-96
2024/02/17 03:47:11;;;;;;;6.63;3.70;;;;;;;10.09;100.00;100919.38;4980332;28;20614;-96
2024/02/17 03:49:42;;;;;;;4.22;3.50;;;;;;;10.15;100.00;100911.78;4975055;28;20038;-96
2024/02/17 03:52:21;;;;;;;7.45;3.67;;;;;;;10.09;100.00;100917.59;4981528;28;20389;-96
2024/02/17 03:55:05;;;;;;;9.35;3.90;;;;;;;10.09;100.00;100917.59;4992668;28;20232;-96
2024/02/17 03:57:51;;;;;;;12.30;4.03;;;;;;;10.12;100.00;100929.69;4993270;28;20126;-96
2024/02/17 04:00:20;;;;;;;6.07;3.90;;;;;;;10.14;100.00;100935.69;4963434;28;20041;-96
2024/02/17 04:02:46;;;;;;;6.53;3.58;;;;;;;10.20;100.00;100945.75;4986834;28;20026;-96
2024/02/17 04:05:22;;;;;;;7.70;3.83;;;;;;;10.22;100.00;100953.53;4974704;28;20042;-96
2024/02/17 04:07:55;;;;;;;6.65;3.92;;;;;;;10.24;100.00;100949.78;4969812;28;20038;-96
2024/02/17 04:10:48;;;;;;;12.25;3.85;;;;;;;10.27;100.00;100954.00;4978310;28;20038;-96
2024/02/17 04:13:19;;;;;;;8.20;3.50;;;;;;;10.23;100.00;100947.28;4978909;28;20034;-96
2024/02/17 04:15:45;;;;;;;8.57;4.05;;;;;;;10.23;100.00;100953.41;4940898;28;20043;-96
2024/02/17 04:18:17;;;;;;;7.80;4.22;;;;;;;10.28;100.00;100959.16;4963236;28;20133;-96
2024/02/17 04:20:47;;;;;;;7.35;4.38;;;;;;;10.30;100.00;100978.31;4996619;28;20050;-96
2024/02/17 04:23:19;;;;;;;7.45;4.15;;;;;;;10.28;100.00;100971.50;4967937;28;20030;-96
2024/02/17 04:25:48;;;;;;;12.98;3.83;;;;;;;10.32;100.00;100985.31;4987690;28;20030;-96
2024/02/17 04:28:25;;;;;;;8.27;3.88;;;;;;;10.35;100.00;100996.44;4971475;28;20030;-96
2024/02/17 04:30:57;;;;;;;6.32;4.15;;;;;;;10.33;100.00;100986.97;4987529;28;20152;-96
2024/02/17 04:33:25;;;;;;;6.57;4.25;;;;;;;10.41;100.00;100992.47;4962979;28;20061;-96
2024/02/17 04:35:56;;;;;;;8.05;4.00;;;;;;;10.47;100.00;100977.91;4961036;28;20707;-96
2024/02/17 04:38:25;;;;;;;6.65;4.55;;;;;;;10.46;100.00;100968.28;4965665;28;20034;-96
2024/02/17 04:40:51;;;;;;;14.88;4.57;;;;;;;10.45;100.00;100963.97;4979448;28;20042;-96
2024/02/17 04:43:22;;;;;;;9.45;5.03;;;;;;;10.44;100.00;100965.75;4961277;28;20094;-95
2024/02/17 04:45:51;;;;;;;8.38;5.18;;;;;;;10.42;100.00;100979.13;4943845;28;20062;-96
2024/02/17 04:48:18;;;;;;;6.85;4.53;;;;;;;10.42;100.00;100980.91;4960538;28;20138;-96
2024/02/17 04:50:44;;;;;;;11.98;4.97;;;;;;;10.47;100.00;100991.97;4976334;28;20031;-96
2024/02/17 04:53:13;;;;;;;7.60;4.40;;;;;;;10.42;100.00;100976.47;4954510;28;20077;-95
2024/02/17 04:55:39;;;;;;;7.35;3.88;;;;;;;10.40;100.00;100981.03;4988891;28;20037;-96
2024/02/17 04:58:16;;;;;;;8.27;4.80;;;;;;;10.39;100.00;100989.94;4980528;28;20130;-96
2024/02/17 05:00:47;;;;;;;11.25;4.75;;;;;;;10.40;100.00;100991.59;4977398;28;20048;-96
2024/02/17 05:03:19;;;;;;;7.07;4.35;;;;;;;10.42;100.00;100997.63;4973959;28;20034;-96
2024/02/17 05:05:45;;;;;;;7.85;4.70;;;;;;;10.45;100.00;101001.78;4993625;28;20041;-95
2024/02/17 05:08:16;;;;;;;6.75;4.32;;;;;;;10.51;100.00;101006.59;4967272;28;20042;-96
2024/02/17 05:10:52;;;;;;;5.70;3.75;;;;;;;10.51;100.00;101008.41;4963780;28;20030;-96
2024/02/17 05:13:22;;;;;;;9.70;4.10;;;;;;;10.48;100.00;101003.38;4957475;28;20106;-96
2024/02/17 05:15:47;;;;;;;7.80;3.70;;;;;;;10.48;100.00;100991.00;4962438;28;20534;-96
2024/02/17 05:18:14;;;;;;;4.30;3.30;;;;;;;10.48;100.00;100995.47;4962364;28;20121;-96
2024/02/17 05:20:49;;;;;;;5.72;3.03;;;;;;;10.56;100.00;100990.34;4966256;28;20046;-96
2024/02/17 05:23:18;;;;;;;3.60;2.78;;;;;;;10.51;100.00;101003.13;4972333;28;20559;-96
2024/02/17 05:25:49;;;;;;;4.68;2.70;;;;;;;10.51;100.00;100992.56;4964833;28;20097;-96
2024/02/17 05:28:27;;;;;;;4.93;2.80;;;;;;;10.57;100.00;100975.31;4962357;28;20034;-96
2024/02/17 05:31:01;;;;;;;6.38;3.03;;;;;;;10.49;100.00;100970.69;4973674;28;20050;-96
2024/02/17 05:33:28;;;;;;;6.20;3.38;;;;;;;10.48;100.00;100985.69;4984444;28;20018;-96
2024/02/17 05:35:57;;;;;;;6.00;3.63;;;;;;;10.52;100.00;100979.22;4959251;28;20124;-96
2024/02/17 05:38:23;;;;;;;7.82;4.15;;;;;;;10.47;100.00;100977.91;4970658;28;20030;-96
2024/02/17 05:40:51;;;;;;;8.82;3.67;;;;;;;10.47;100.00;100967.34;4959203;28;20079;-96
2024/02/17 05:43:47;;;;;;;8.75;4.53;;;;;;;10.47;100.00;100969.97;4977293;28;20034;-96
2024/02/17 05:46:22;;;;;;;7.80;4.35;;;;;;;10.48;100.00;100969.84;4971370;28;20089;-96
2024/02/17 05:48:48;;;;;;;7.32;4.50;;;;;;;10.48;100.00;100963.75;4986678;28;20512;-96
2024/02/17 05:51:15;;;;;;;5.88;3.47;;;;;;;10.42;100.00;100959.75;4986505;28;20069;-95
2024/02/17 05:53:47;;;;;;;6.63;3.28;;;;;;;10.40;100.00;100959.09;4946061;28;20050;-95
2024/02/17 05:56:41;;;;;;;7.10;3.10;;;;;;;10.43;100.00;100957.00;4974545;28;20056;-96
2024/02/17 05:59:10;;;;;;;7.53;2.95;;;;;;;10.44;100.00;100955.19;4982137;28;20119;-96
2024/02/17 06:01:41;;;;;;;6.68;3.22;;;;;;;10.48;100.00;100967.19;4985520;28;20030;-96
2024/02/17 06:04:25;;;;;;;4.10;2.60;;;;;;;10.47;100.00;100962.91;4974377;28;20472;-96
2024/02/17 06:07:11;;;;;;;6.82;2.58;;;;;;;10.42;100.00;100954.47;4964823;28;20046;-96
2024/02/17 06:09:40;;;;;;;5.90;2.92;;;;;;;10.38;100.00;100955.72;4999552;28;20034;-96
2024/02/17 06:12:17;;;;;;;5.47;3.80;;;;;;;10.46;100.00;100952.41;4978950;28;20531;-96
2024/02/17 06:14:45;;;;;;;7.47;3.10;;;;;;;10.39;100.00;100957.38;4978170;28;20063;-96
2024/02/17 06:17:23;;;;;;;6.20;3.53;;;;;;;10.42;100.00;100954.47;4975726;28;20030;-96
2024/02/17 06:22:38;;;;;;;7.07;3.50;;;;;;;10.34;100.00;100943.72;4976798;28;20045;-96
2024/02/17 06:25:08;;;;;;;8.13;4.00;;;;;;;10.38;100.00;100945.16;4967829;28;20042;-96
2024/02/17 06:27:34;;;;;;;6.60;3.50;;;;;;;10.37;100.00;100951.38;4974699;28;20845;-96
2024/02/17 06:30:02;;;;;;;6.60;3.25;;;;;;;10.35;100.00;100934.84;4952131;28;20133;-96
2024/02/17 06:32:31;;;;;;;7.35;3.28;;;;;;;10.32;100.00;100930.63;4962592;28;20041;-96
2024/02/17 06:35:01;;;;;;;7.22;3.00;;;;;;;10.28;100.00;100930.09;4952048;28;20034;-96
2024/02/17 06:37:29;;;;;;;7.15;3.30;;;;;;;10.25;100.00;100927.69;4952478;28;20037;-96
2024/02/17 06:40:04;;;;;;;5.93;3.35;;;;;;;10.32;100.00;100924.53;4969388;28;20041;-96
2024/02/17 06:42:30;;;;;;;6.30;3.30;;;;;;;10.26;100.00;100918.81;4963908;28;20041;-96
2024/02/17 06:44:59;;;;;;;6.25;3.30;;;;;;;10.22;100.00;100914.75;4971764;28;20124;-96
2024/02/17 06:47:28;;;;;;;4.40;2.85;;;;;;;10.20;100.00;100921.97;4979479;28;20601;-96
2024/02/17 06:49:55;;;;;;;6.32;2.75;;;;;;;10.17;100.00;100901.09;4991413;28;20053;-96
2024/02/17 06:52:42;;;;;;;2.83;2.45;;;;;;;10.26;100.00;100910.03;4987702;28;20035;-96
2024/02/17 06:55:13;;;;;;;6.20;2.35;;;;;;;10.20;100.00;100895.53;4985191;28;20118;-96
2024/02/17 06:57:42;;;;;;;13.20;2.33;;;;;;;10.27;100.00;100890.59;4995827;28;20113;-96
2024/02/17 07:00:12;;;;;;;4.82;2.33;;;;;;;10.29;100.00;100904.47;4972423;28;20030;-96
2024/02/17 07:02:45;;;;;;;3.58;1.70;;;;;;;10.26;100.00;100902.09;4995508;28;20038;-96
2024/02/17 07:05:24;;;;;;;3.20;1.73;;;;;;;10.29;100.00;100905.31;4984899;28;20037;-96
2024/02/17 07:08:08;;;;;;;1.98;1.40;;;;;;;10.33;100.00;100900.63;4951813;28;20050;-96
2024/02/17 07:10:45;;;;;;;2.47;1.40;;;;;;;10.33;100.00;100894.50;4989533;28;20041;-96
2024/02/17 07:13:18;;;;;;;2.83;1.45;;;;;;;10.34;100.00;100898.78;4978975;28;20065;-96
2024/02/17 07:16:17;;;;;;;1.67;1.00;;;;;;;10.31;100.00;100899.91;4981184;28;20074;-96
2024/02/17 07:18:46;;;;;;;0.82;0.73;;;;;;;10.25;100.00;100905.72;4990135;28;20042;-96
2024/02/17 07:21:18;;;;;;;0.90;0.60;;;;;;;10.32;100.00;100912.16;4982201;28;20030;-96
2024/02/17 07:24:54;;;;;;;0.73;0.50;;;;;;;10.33;100.00;100915.63;4973422;28;20038;-96
2024/02/17 07:27:29;;;;;;;0.40;0.40;;;;;;;10.24;100.00;100909.34;4965921;28;20046;-96
2024/02/17 07:29:55;;;;;;;0.77;0.40;;;;;;;10.26;100.00;100910.03;4961561;28;20030;-96
2024/02/17 07:33:03;;;;;;;0.68;0.30;;;;;;;10.35;100.00;100903.13;4947985;28;20556;-96
2024/02/17 07:35:34;;;;;;;0.40;0.30;;;;;;;10.29;100.00;100897.41;4968588;28;20124;-96
2024/02/17 07:38:09;;;;;;;0.20;0.20;;;;;;;10.38;100.00;100897.59;4979280;28;20100;-95
2024/02/17 07:40:38;;;;;;;;;;;;;;;10.35;100.00;100903.13;4980884;28;20049;-96
2024/02/17 07:43:23;;;;;;;0.20;0.20;;;;;;;10.32;100.00;100917.44;4966618;28;19984;-96
2024/02/17 07:45:58;;;;;;;1.15;0.30;;;;;;;10.38;100.00;100918.72;4934175;28;20052;-96
2024/02/17 07:48:38;;;;;;;0.85;0.85;;;;;;;10.40;100.00;100917.63;4967860;28;20088;-96
2024/02/17 07:51:09;;;;;;;2.72;0.25;;;;;;;10.35;100.00;100900.50;4973313;28;20026;-96
2024/02/17 07:54:06;;;;;;;1.30;0.20;;;;;;;10.46;100.00;100894.28;4962286;28;20576;-96
2024/02/17 07:57:08;;;;;;;0.65;0.20;;;;;;;10.48;100.00;100905.59;4967860;28;20078;-96
2024/02/17 07:59:53;;;;;;;0.63;0.30;;;;;;;10.47;100.00;100906.53;4974753;28;20042;-96
2024/02/17 08:02:39;;;;;;;0.68;0.40;;;;;;;10.51;100.00;100903.50;4964836;28;20050;-96
2024/02/17 08:05:54;;;;;;;0.20;0.20;;;;;;;10.51;100.00;100900.88;4977628;28;20512;-96
2024/02/17 08:08:35;;;;;;;0.30;0.30;;;;;;;10.50;100.00;100903.63;4985624;28;20034;-96
2024/02/17 08:11:21;;;;;;;0.20;0.20;;;;;;;10.55;100.00;100901.44;4960157;28;20101;-96
2024/02/17 08:14:15;;;;;;;1.77;0.57;;;;;;;10.49;100.00;100907.25;4960461;28;20481;-96
2024/02/17 08:16:55;;;;;;;2.65;0.40;;;;;;;10.54;100.00;100900.59;4949887;28;20053;-96
2024/02/17 08:19:25;;;;;;;0.63;0.30;;;;;;;10.49;100.00;100902.81;4949327;28;20045;-95
2024/02/17 08:21:55;;;;;;;0.32;0.30;;;;;;;10.54;100.00;100903.25;4964386;28;20056;-96
2024/02/17 08:24:25;;;;;;;1.23;0.47;;;;;;;10.58;100.00;100909.09;4976434;28;20050;-96
2024/02/17 08:26:54;;;;;;;0.30;0.30;;;;;;;10.57;100.00;100896.03;4962518;28;20130;-95
2024/02/17 08:29:29;;;;;;;3.08;0.50;;;;;;;10.58;100.00;100893.25;4970254;28;20049;-95
2024/02/17 08:36:16;;;;;;;0.88;0.40;;;;;;;10.49;100.00;100889.59;4980217;28;20073;-94
2024/02/17 08:38:42;;;;;;;0.70;0.32;;;;;;;10.49;100.00;100889.59;4961438;28;20038;-94
2024/02/17 08:41:39;;;;;;;1.38;0.60;;;;;;;10.58;100.00;100895.03;4977209;28;20041;-94
2024/02/17 08:44:37;;;;;;;0.40;0.40;;;;;;;10.52;100.00;100884.06;4983495;28;20053;-96
2024/02/17 08:56:27;;;;;;;;;;;;;;;;;;;;;
2024/02/17 09:12:22;;;;;;;0.75;0.15;;;;;;;10.59;100.00;100894.09;4857271;29;20133;-93
2024/02/17 09:15:00;;;;;;;0.38;0.10;;;;;;;10.61;100.00;100908.00;4869690;29;20045;-95
2024/02/17 09:18:15;;;;;;;0.10;0.00;;;;;;;10.66;100.00;100911.94;4859416;29;20577;-94
2024/02/17 09:21:20;;;;;;;0.08;0.00;;;;;;;10.66;100.00;100913.72;4857745;29;20061;-94
2024/02/17 09:24:21;;;;;;;0.00;0.00;;;;;;;10.64;100.00;100903.28;4844420;29;20045;-95
2024/02/17 09:31:27;;;;;;;4.20;0.05;;;;;;;10.64;100.00;100908.56;4877896;29;20197;-95
2024/02/17 09:39:40;;;;;;;2.20;0.00;;;;;;;10.66;100.00;100897.88;4875404;29;20173;-94
2024/02/17 09:42:20;;;;;;;0.35;0.10;;;;;;;10.65;100.00;100889.09;4902575;29;20052;-95
2024/02/17 09:45:37;;;;;;;1.45;0.03;;;;;;;10.63;100.00;100888.41;4899427;29;20044;-94
2024/02/17 09:52:04;;;;;;;0.70;0.10;;;;;;;10.66;100.00;100876.72;4967174;28;20121;-94
2024/02/17 10:19:15;;;;;;;;;;;;;;;;;;;;;
2024/02/17 10:23:08;;;;;;;0.00;0.00;;;;;;;10.76;100.00;100845.88;4890882;29;20068;-93
2024/02/17 11:05:04;;;;;;;0.00;0.00;;;;;;;11.01;100.00;100811.94;4899751;29;20036;-96
2024/02/17 11:09:12;;;;;;;0.00;0.00;;;;;;;11.08;100.00;100785.78;4901419;29;20070;-96
2024/02/17 11:12:35;;;;;;;0.00;0.00;;;;;;;11.13;100.00;100761.53;4933808;28;20089;-95
2024/02/17 11:53:47;;;;;;;;;;;;;;;;;;;;;
2024/02/17 12:06:25;;;;;;;2.63;2.42;;;;;;;11.66;100.00;100820.25;4906785;29;20072;-92
2024/02/17 12:09:52;;;;;;;4.13;2.75;;;;;;;11.70;100.00;100818.16;4968895;28;20035;-94
2024/02/17 12:16:38;;;;;;;24.60;19.05;;;;;;;11.80;100.00;100821.63;4971547;28;20126;-94
2024/02/17 12:20:16;;;;;;;3.33;3.03;;;;;;;11.80;100.00;100824.28;4899105;29;20478;-95
2024/02/17 12:23:41;;;;;;;5.78;5.28;;;;;;;11.85;100.00;100818.56;4896996;29;20127;-93
2024/02/17 12:26:37;;;;;;;2.28;1.55;;;;;;;11.83;100.00;100826.66;4951174;28;20042;-93
2024/02/17 12:29:15;;;;;;;3.83;3.40;;;;;;;11.95;100.00;100834.41;4943671;28;20067;-94
2024/02/17 12:32:02;;;;;;;4.35;3.85;;;;;;;11.97;100.00;100816.56;4946404;28;20110;-93
2024/02/17 12:35:24;;;;;;;3.72;3.35;;;;;;;12.00;100.00;100826.88;4925483;28;20053;-93
2024/02/17 12:38:05;;;;;;;3.25;3.05;;;;;;;11.95;100.00;100822.00;4944674;28;20068;-94
2024/02/17 12:44:36;;;;;;;9.02;7.75;;;;;;;12.03;100.00;100832.72;4936798;28;20414;-93
2024/02/17 12:55:28;;;;;;;3.28;2.80;;;;;;;12.11;100.00;100834.66;4902279;29;20127;-94
2024/02/17 12:58:17;;;;;;;10.63;7.32;;;;;;;12.08;100.00;100832.31;4887329;29;20051;-94
2024/02/17 13:01:04;;;;;;;2.47;1.80;;;;;;;12.14;100.00;100833.53;4881739;28;20028;-94
2024/02/17 13:03:31;;;;;;;6.82;3.97;;;;;;;12.16;100.00;100836.88;4950809;28;20043;-94
2024/02/17 13:06:29;;;;;;;3.65;1.83;;;;;;;12.22;100.00;100854.00;4922199;29;20036;-95
2024/02/17 13:18:07;;;;;;;0.75;0.70;;;;;;;12.33;100.00;100845.03;4951746;28;20053;-94
2024/02/17 13:21:11;;;;;;;0.47;0.30;;;;;;;12.43;100.00;100824.63;4919515;28;20047;-92
2024/02/17 13:24:00;;;;;;;1.25;0.30;;;;;;;12.46;100.00;100829.63;4954517;28;20620;-93
2024/02/17 13:30:38;;;;;;;1.05;0.65;;;;;;;12.45;100.00;100827.13;4947638;28;20027;-94
2024/02/17 13:48:23;;;;;;;0.75;0.40;;;;;;;12.65;100.00;100817.25;4948255;28;20520;-94
2024/02/17 13:51:14;;;;;;;1.75;0.40;;;;;;;12.74;100.00;100819.00;4927907;29;20469;-96
2024/02/17 13:54:19;;;;;;;1.27;0.70;;;;;;;12.88;100.00;100822.97;4950259;28;20031;-95
2024/02/17 14:09:42;;;;;;;0.40;0.30;;;;;;;13.42;100.00;100813.34;4916058;29;20038;-95
2024/02/17 14:13:16;;;;;;;5.45;4.93;;;;;;;13.42;100.00;100817.81;4926953;28;20106;-95
2024/02/17 14:19:54;;;;;;;1.33;1.15;;;;;;;13.26;100.00;100812.22;4958028;28;20130;-95
2024/02/17 14:22:23;;;;;;;1.63;1.52;;;;;;;13.33;100.00;100806.31;4947073;28;20044;-95
2024/02/17 14:24:49;;;;;;;1.13;1.02;;;;;;;13.28;100.00;100793.50;4942062;28;20094;-95
2024/02/17 14:27:18;;;;;;;0.70;0.70;;;;;;;13.29;100.00;100795.16;4927720;28;20046;-95
2024/02/17 14:30:22;;;;;;;1.70;0.90;;;;;;;13.27;100.00;100797.09;4949203;29;20039;-95
2024/02/17 14:32:50;;;;;;;1.40;0.70;;;;;;;13.27;100.00;100803.25;4972261;28;20047;-95
2024/02/17 14:35:23;;;;;;;0.30;0.30;;;;;;;13.32;100.00;100801.97;4975685;28;20058;-95
2024/02/17 14:37:51;;;;;;;2.35;0.30;;;;;;;13.26;100.00;100798.94;4979420;28;20100;-96
2024/02/17 14:40:19;;;;;;;3.65;0.57;;;;;;;13.26;100.00;100792.78;4968981;28;20069;-94
2024/02/17 14:42:47;;;;;;;0.30;0.20;;;;;;;13.28;100.00;100791.66;4995850;28;20038;-95
2024/02/17 14:45:24;;;;;;;0.50;0.40;;;;;;;13.35;100.00;100785.72;4939955;28;20041;-96
2024/02/17 14:47:59;;;;;;;1.55;0.20;;;;;;;13.38;100.00;100777.44;4964833;28;20038;-95
2024/02/17 14:50:31;;;;;;;0.50;0.20;;;;;;;13.32;100.00;100789.53;4983242;28;20046;-96
2024/02/17 14:53:04;;;;;;;0.38;0.20;;;;;;;13.39;100.00;100795.88;4953701;28;20026;-96
2024/02/17 14:55:35;;;;;;;1.85;0.60;;;;;;;13.35;100.00;100807.81;4966008;28;20049;-95
2024/02/17 14:58:04;;;;;;;0.17;0.17;;;;;;;13.40;100.00;100816.16;4968081;28;20053;-94
2024/02/17 15:00:53;;;;;;;0.73;0.20;;;;;;;13.40;100.00;100799.38;4970613;28;20046;-96
2024/02/17 15:03:28;;;;;;;0.20;0.20;;;;;;;13.36;100.00;100803.34;4960724;28;20049;-95
2024/02/17 15:06:02;;;;;;;0.80;0.22;;;;;;;13.33;100.00;100790.38;4954145;28;20092;-96
2024/02/17 15:08:31;;;;;;;0.52;0.22;;;;;;;13.42;100.00;100805.38;4960084;28;20037;-95
2024/02/17 15:11:15;;;;;;;0.93;0.30;;;;;;;13.40;100.00;100802.03;4974379;28;20135;-95
2024/02/17 15:13:49;;;;;;;0.30;0.30;;;;;;;13.33;100.00;100793.03;4961985;28;20117;-95
2024/02/17 15:16:19;;;;;;;0.65;0.60;;;;;;;13.33;100.00;100793.03;4961794;28;20105;-95
2024/02/17 15:18:48;;;;;;;0.30;0.30;;;;;;;13.28;100.00;100789.00;4964567;28;20037;-94
2024/02/17 15:21:22;;;;;;;0.70;0.47;;;;;;;13.34;100.00;100800.00;4947718;28;20041;-95
2024/02/17 15:23:48;;;;;;;0.57;0.40;;;;;;;13.22;100.00;100800.22;4957280;28;20022;-95
2024/02/17 15:26:20;;;;;;;0.80;0.50;;;;;;;13.31;100.00;100809.09;4968405;28;20026;-95
2024/02/17 15:28:59;;;;;;;0.40;0.40;;;;;;;13.32;100.00;100801.97;4979857;28;20035;-94
2024/02/17 15:31:37;;;;;;;2.33;0.40;;;;;;;13.27;100.00;100799.75;4952669;28;20058;-94
2024/02/17 15:34:07;;;;;;;2.58;1.80;;;;;;;13.30;100.00;100812.72;4922928;28;20043;-93
2024/02/17 15:36:36;;;;;;;8.63;4.65;;;;;;;13.27;100.00;100807.72;4958932;28;20039;-94
2024/02/17 15:39:17;;;;;;;14.32;10.75;;;;;;;13.37;100.00;100813.81;4922090;28;20043;-94
2024/02/17 15:45:25;;;;;;;5.88;4.20;;;;;;;13.30;100.00;100799.47;4921747;28;20385;-93
2024/02/17 15:48:04;;;;;;;26.02;20.40;;;;;;;13.24;100.00;100814.19;4937750;28;20513;-93
2024/02/17 15:51:17;;;;;;;16.38;13.30;;;;;;;13.28;100.00;100812.88;4928358;28;20089;-93
2024/02/17 15:57:34;;;;;;;6.35;4.28;;;;;;;13.28;100.00;100818.19;4958898;28;20132;-92
2024/02/17 16:00:00;;;;;;;10.18;7.85;;;;;;;13.25;100.00;100815.03;4933798;29;20035;-92
2024/02/17 16:02:45;;;;;;;8.20;6.80;;;;;;;13.32;100.00;100815.22;4957632;28;20629;-93
2024/02/17 16:05:11;;;;;;;40.90;23.30;;;;;;;13.28;100.00;100828.00;4941537;29;20043;-92
2024/02/17 16:07:37;;;;;;;14.43;11.68;;;;;;;13.32;100.00;100823.19;4922878;28;20510;-93
2024/02/17 16:10:03;;;;;;;12.77;9.40;;;;;;;13.39;100.00;100834.88;4921370;29;20042;-92
2024/02/17 16:12:29;;;;;;;7.28;4.32;;;;;;;13.40;100.00;100829.44;4928767;28;20040;-93
2024/02/17 16:15:10;;;;;;;20.42;15.95;;;;;;;13.48;100.00;100831.31;4925263;28;20126;-91
2024/02/17 16:17:39;;;;;;;19.10;13.45;;;;;;;13.43;100.00;100825.63;4931731;28;20354;-91
2024/02/17 16:28:38;;;;;;;13.85;10.98;;;;;;;13.40;100.00;100847.16;4884244;29;20123;-92
2024/02/17 16:31:30;;;;;;;17.83;14.52;;;;;;;13.40;100.00;100849.81;4882994;29;20032;-92
2024/02/17 16:33:55;;;;;;;13.13;9.55;;;;;;;13.38;100.00;100851.78;4929175;28;20137;-92
2024/02/17 16:36:21;;;;;;;19.83;17.15;;;;;;;13.40;100.00;100848.00;4965428;28;20125;-92
2024/02/17 16:39:03;;;;;;;35.65;28.20;;;;;;;13.48;100.00;100849.91;4928635;28;20038;-93
2024/02/17 16:41:29;;;;;;;73.80;64.60;;;;;;;13.39;100.00;100856.94;4937821;29;20035;-92
2024/02/17 16:43:54;;;;;;;15.02;12.88;;;;;;;13.38;100.00;100847.31;4952934;28;20053;-92
2024/02/17 16:59:59;;;;;;;19.50;14.35;;;;;;;13.42;100.00;100847.84;4913711;29;20606;-92
2024/02/17 17:07:26;;;;;;;16.52;12.45;;;;;;;13.40;100.00;100853.31;4972224;28;20453;-93
2024/02/17 17:13:20;;;;;;;35.88;22.63;;;;;;;13.36;100.00;100864.41;4973176;28;20580;-92
2024/02/17 17:15:47;;;;;;;28.13;20.10;;;;;;;13.38;100.00;100857.94;4960972;28;20042;-93
2024/02/17 17:18:35;;;;;;;16.05;11.05;;;;;;;13.45;100.00;100860.81;4926241;29;20038;-92
2024/02/17 17:21:01;;;;;;;14.77;9.40;;;;;;;13.35;100.00;100868.88;4934004;28;20049;-88
2024/02/17 17:23:30;;;;;;;20.27;10.23;;;;;;;13.40;100.00;100879.03;4937774;28;20031;-90
2024/02/17 17:30:45;;;;;;;65.20;36.30;;;;;;;13.34;100.00;100884.94;4973345;28;20401;-93
2024/02/17 17:33:10;;;;;;;84.33;46.13;;;;;;;13.31;100.00;100894.06;4933298;28;20051;-93
2024/02/17 17:35:36;;;;;;;88.38;48.13;;;;;;;13.29;100.00;100882.75;4951939;28;20476;-93
2024/02/17 17:38:32;;;;;;;86.03;56.70;;;;;;;13.38;100.00;100891.59;4961372;28;20133;-93
2024/02/17 17:45:10;;;;;;;37.35;26.42;;;;;;;13.35;100.00;100894.56;4992094;28;20120;-92
2024/02/17 17:48:30;;;;;;;52.40;35.00;;;;;;;13.34;100.00;100885.78;4958204;28;20037;-94
2024/02/17 17:56:11;;;;;;;21.02;13.13;;;;;;;13.31;100.00;100899.38;4961866;28;20035;-94
2024/02/17 17:59:17;;;;;;;12.77;9.20;;;;;;;13.31;100.00;100909.16;4978701;28;20073;-92
2024/02/17 18:01:51;;;;;;;23.42;17.98;;;;;;;13.30;100.00;100920.75;4978884;28;20109;-94
2024/02/17 18:08:57;;;;;;;2.65;2.38;;;;;;;13.23;100.00;100931.97;4999725;28;20096;-94
2024/02/17 18:11:38;;;;;;;5.18;2.20;;;;;;;13.31;100.00;100939.19;4961018;28;20069;-94
2024/02/17 18:14:07;;;;;;;6.93;2.03;;;;;;;13.28;100.00;100942.16;4966656;28;20097;-95
2024/02/17 18:17:16;;;;;;;7.13;2.20;;;;;;;13.27;100.00;100935.16;4949801;28;21505;-94